createdAt,value
2017-01-21T00:00:18.771Z,1011.5
2017-01-21T00:00:41.328Z,1011.5
2017-01-21T00:01:03.145Z,1011.5
2017-01-21T00:01:24.726Z,1011.5
2017-01-21T00:01:46.041Z,1011.5
2017-01-21T00:02:07.385Z,1011.5
2017-01-21T00:02:28.685Z,1011.5
2017-01-21T00:02:50.483Z,1011.5
2017-01-21T00:03:11.846Z,1011.5
2017-01-21T00:03:33.604Z,1011.5
2017-01-21T00:03:55.229Z,1011.5
2017-01-21T00:04:16.516Z,1011.5
2017-01-21T00:04:37.802Z,1011.5
2017-01-21T00:04:59.110Z,1011.5
2017-01-21T00:05:20.400Z,1011.5
2017-01-21T00:05:41.733Z,1011.5
2017-01-21T00:06:03.023Z,1011.5
2017-01-21T00:06:24.319Z,1011.4
2017-01-21T00:06:45.612Z,1011.4
2017-01-21T00:07:06.936Z,1011.4
2017-01-21T00:07:28.249Z,1011.4
2017-01-21T00:07:49.560Z,1011.4
2017-01-21T00:08:11.846Z,1011.4
2017-01-21T00:08:33.294Z,1011.4
2017-01-21T00:08:55.293Z,1011.3
2017-01-21T00:09:16.646Z,1011.3
2017-01-21T00:09:38.136Z,1011.3
2017-01-21T00:09:59.462Z,1011.3
2017-01-21T00:10:20.991Z,1011.3
2017-01-21T00:10:42.845Z,1011.3
2017-01-21T00:11:05.004Z,1011.3
2017-01-21T00:11:26.391Z,1011.3
2017-01-21T00:11:47.739Z,1011.3
2017-01-21T00:12:09.040Z,1011.3
2017-01-21T00:12:30.352Z,1011.3
2017-01-21T00:12:52.649Z,1011.3
2017-01-21T00:13:14.069Z,1011.3
2017-01-21T00:13:35.641Z,1011.3
2017-01-21T00:13:56.989Z,1011.3
2017-01-21T00:14:19.489Z,1011.3
2017-01-21T00:14:40.760Z,1011.3
2017-01-21T00:15:02.090Z,1011.3
2017-01-21T00:15:24.241Z,1011.3
2017-01-21T00:15:45.670Z,1011.3
2017-01-21T00:16:06.965Z,1011.3
2017-01-21T00:16:28.262Z,1011.3
2017-01-21T00:16:49.906Z,1011.3
2017-01-21T00:17:11.219Z,1011.3
2017-01-21T00:17:32.508Z,1011.3
2017-01-21T00:17:53.801Z,1011.3
2017-01-21T00:18:15.099Z,1011.3
2017-01-21T00:18:36.394Z,1011.3
2017-01-21T00:18:57.702Z,1011.4
2017-01-21T00:19:19.339Z,1011.3
2017-01-21T00:19:40.649Z,1011.3
2017-01-21T00:20:02.157Z,1011.3
2017-01-21T00:20:23.545Z,1011.3
2017-01-21T00:20:44.825Z,1011.3
2017-01-21T00:21:07.003Z,1011.2
2017-01-21T00:21:28.302Z,1011.2
2017-01-21T00:21:49.613Z,1011.2
2017-01-21T00:22:10.943Z,1011.2
2017-01-21T00:22:34.966Z,1011.3
2017-01-21T00:22:56.269Z,1011.2
2017-01-21T00:23:17.583Z,1011.2
2017-01-21T00:23:41.408Z,1011.2
2017-01-21T00:24:02.724Z,1011.2
2017-01-21T00:24:26.415Z,1011.2
2017-01-21T00:24:47.717Z,1011.3
2017-01-21T00:25:09.019Z,1011.3
2017-01-21T00:25:30.314Z,1011.3
2017-01-21T00:25:51.683Z,1011.3
2017-01-21T00:26:13.421Z,1011.2
2017-01-21T00:26:35.221Z,1011.2
2017-01-21T00:26:56.496Z,1011.3
2017-01-21T00:27:17.831Z,1011.2
2017-01-21T00:27:39.159Z,1011.3
2017-01-21T00:28:00.451Z,1011.2
2017-01-21T00:28:21.758Z,1011.3
2017-01-21T00:28:43.059Z,1011.3
2017-01-21T00:29:04.388Z,1011.2
2017-01-21T00:29:25.697Z,1011.2
2017-01-21T00:29:47.002Z,1011.2
2017-01-21T00:30:08.323Z,1011.3
2017-01-21T00:30:29.612Z,1011.2
2017-01-21T00:30:50.943Z,1011.3
2017-01-21T00:31:12.230Z,1011.3
2017-01-21T00:31:33.534Z,1011.3
2017-01-21T00:31:54.831Z,1011.2
2017-01-21T00:32:16.108Z,1011.3
2017-01-21T00:32:37.442Z,1011.3
2017-01-21T00:32:58.828Z,1011.2
2017-01-21T00:33:20.364Z,1011.3
2017-01-21T00:33:41.659Z,1011.3
2017-01-21T00:34:02.933Z,1011.2
2017-01-21T00:34:24.209Z,1011.3
2017-01-21T00:34:45.514Z,1011.3
2017-01-21T00:35:06.800Z,1011.3
2017-01-21T00:35:28.154Z,1011.2
2017-01-21T00:35:49.487Z,1011.3
2017-01-21T00:36:10.800Z,1011.2
2017-01-21T00:36:32.214Z,1011.3
2017-01-21T00:36:53.504Z,1011.3
2017-01-21T00:37:14.887Z,1011.3
2017-01-21T00:37:36.468Z,1011.3
2017-01-21T00:37:57.878Z,1011.3
2017-01-21T00:38:19.256Z,1011.2
2017-01-21T00:38:40.831Z,1011.2
2017-01-21T00:39:02.984Z,1011.2
2017-01-21T00:39:24.292Z,1011.3
2017-01-21T00:39:45.749Z,1011.3
2017-01-21T00:40:07.076Z,1011.3
2017-01-21T00:40:28.506Z,1011.3
2017-01-21T00:40:49.847Z,1011.2
2017-01-21T00:41:11.151Z,1011.3
2017-01-21T00:41:32.495Z,1011.3
2017-01-21T00:41:54.434Z,1011.2
2017-01-21T00:42:15.878Z,1011.3
2017-01-21T00:42:37.369Z,1011.3
2017-01-21T00:42:58.660Z,1011.3
2017-01-21T00:43:20.148Z,1011.3
2017-01-21T00:43:42.067Z,1011.3
2017-01-21T00:44:03.431Z,1011.3
2017-01-21T00:44:24.802Z,1011.3
2017-01-21T00:44:46.394Z,1011.3
2017-01-21T00:45:07.841Z,1011.3
2017-01-21T00:45:29.486Z,1011.3
2017-01-21T00:45:50.933Z,1011.3
2017-01-21T00:46:12.513Z,1011.3
2017-01-21T00:46:34.574Z,1011.3
2017-01-21T00:46:56.090Z,1011.3
2017-01-21T00:47:17.388Z,1011.3
2017-01-21T00:47:38.679Z,1011.3
2017-01-21T00:48:00.004Z,1011.3
2017-01-21T00:48:21.356Z,1011.3
2017-01-21T00:48:42.689Z,1011.3
2017-01-21T00:49:04.081Z,1011.3
2017-01-21T00:49:25.549Z,1011.2
2017-01-21T00:49:46.926Z,1011.2
2017-01-21T00:50:08.220Z,1011.2
2017-01-21T00:50:29.551Z,1011.2
2017-01-21T00:50:50.885Z,1011.2
2017-01-21T00:51:12.175Z,1011.2
2017-01-21T00:51:33.465Z,1011.2
2017-01-21T00:51:54.759Z,1011.2
2017-01-21T00:52:16.114Z,1011.2
2017-01-21T00:52:37.449Z,1011.2
2017-01-21T00:52:58.904Z,1011.2
2017-01-21T00:53:20.521Z,1011.2
2017-01-21T00:53:41.847Z,1011.2
2017-01-21T00:54:03.162Z,1011.2
2017-01-21T00:54:25.393Z,1011.2
2017-01-21T00:54:46.716Z,1011.2
2017-01-21T00:55:08.052Z,1011.2
2017-01-21T00:55:29.344Z,1011.2
2017-01-21T00:55:50.652Z,1011.2
2017-01-21T00:56:12.290Z,1011.2
2017-01-21T00:56:33.627Z,1011.2
2017-01-21T00:56:54.915Z,1011.2
2017-01-21T00:57:16.336Z,1011.2
2017-01-21T00:57:37.992Z,1011.2
2017-01-21T00:57:59.547Z,1011.2
2017-01-21T00:58:20.841Z,1011.2
2017-01-21T00:58:42.129Z,1011.2
2017-01-21T00:59:03.419Z,1011.2
2017-01-21T00:59:24.702Z,1011.2
2017-01-21T00:59:45.993Z,1011.2
2017-01-21T01:00:07.280Z,1011.2
2017-01-21T01:00:28.636Z,1011.2
2017-01-21T01:00:50.058Z,1011.2
2017-01-21T01:01:11.550Z,1011.2
2017-01-21T01:01:32.856Z,1011.2
2017-01-21T01:01:54.255Z,1011.2
2017-01-21T01:02:15.547Z,1011.2
2017-01-21T01:02:37.315Z,1011.2
2017-01-21T01:02:58.614Z,1011.2
2017-01-21T01:03:19.903Z,1011.2
2017-01-21T01:03:41.225Z,1011.2
2017-01-21T01:04:02.538Z,1011.2
2017-01-21T01:04:23.830Z,1011.2
2017-01-21T01:04:45.119Z,1011.2
2017-01-21T01:05:06.445Z,1011.2
2017-01-21T01:05:27.743Z,1011.3
2017-01-21T01:05:49.032Z,1011.2
2017-01-21T01:06:10.550Z,1011.2
2017-01-21T01:06:32.867Z,1011.2
2017-01-21T01:06:54.172Z,1011.3
2017-01-21T01:07:15.532Z,1011.3
2017-01-21T01:07:37.349Z,1011.2
2017-01-21T01:07:58.867Z,1011.3
2017-01-21T01:08:20.284Z,1011.3
2017-01-21T01:08:41.609Z,1011.3
2017-01-21T01:09:02.911Z,1011.3
2017-01-21T01:09:24.269Z,1011.3
2017-01-21T01:09:45.614Z,1011.3
2017-01-21T01:10:07.630Z,1011.3
2017-01-21T01:10:29.176Z,1011.3
2017-01-21T01:10:50.488Z,1011.3
2017-01-21T01:11:12.150Z,1011.3
2017-01-21T01:11:33.461Z,1011.3
2017-01-21T01:11:54.773Z,1011.3
2017-01-21T01:12:16.071Z,1011.3
2017-01-21T01:12:37.357Z,1011.3
2017-01-21T01:12:58.648Z,1011.3
2017-01-21T01:13:20.158Z,1011.3
2017-01-21T01:13:41.664Z,1011.3
2017-01-21T01:14:03.652Z,1011.3
2017-01-21T01:14:24.936Z,1011.2
2017-01-21T01:14:46.869Z,1011.2
2017-01-21T01:15:08.263Z,1011.2
2017-01-21T01:15:29.600Z,1011.2
2017-01-21T01:15:50.952Z,1011.2
2017-01-21T01:16:12.248Z,1011.2
2017-01-21T01:16:33.556Z,1011.2
2017-01-21T01:16:54.847Z,1011.2
2017-01-21T01:17:16.250Z,1011.2
2017-01-21T01:17:38.299Z,1011.2
2017-01-21T01:17:59.597Z,1011.2
2017-01-21T01:18:20.896Z,1011.2
2017-01-21T01:18:42.226Z,1011.2
2017-01-21T01:19:03.517Z,1011.3
2017-01-21T01:19:24.805Z,1011.2
2017-01-21T01:19:46.084Z,1011.3
2017-01-21T01:20:07.536Z,1011.3
2017-01-21T01:20:28.931Z,1011.3
2017-01-21T01:20:50.368Z,1011.3
2017-01-21T01:21:11.675Z,1011.3
2017-01-21T01:21:32.961Z,1011.3
2017-01-21T01:21:54.334Z,1011.3
2017-01-21T01:22:15.640Z,1011.4
2017-01-21T01:22:36.980Z,1011.4
2017-01-21T01:22:58.309Z,1011.3
2017-01-21T01:23:19.647Z,1011.4
2017-01-21T01:23:40.962Z,1011.3
2017-01-21T01:24:02.505Z,1011.4
2017-01-21T01:24:24.580Z,1011.4
2017-01-21T01:24:46.187Z,1011.4
2017-01-21T01:25:07.574Z,1011.4
2017-01-21T01:25:28.886Z,1011.4
2017-01-21T01:25:50.203Z,1011.4
2017-01-21T01:26:12.427Z,1011.4
2017-01-21T01:26:33.931Z,1011.4
2017-01-21T01:26:55.237Z,1011.4
2017-01-21T01:27:16.617Z,1011.4
2017-01-21T01:27:38.032Z,1011.4
2017-01-21T01:27:59.333Z,1011.4
2017-01-21T01:28:20.772Z,1011.4
2017-01-21T01:28:42.065Z,1011.4
2017-01-21T01:29:03.350Z,1011.4
2017-01-21T01:29:24.875Z,1011.4
2017-01-21T01:29:46.178Z,1011.4
2017-01-21T01:30:07.475Z,1011.4
2017-01-21T01:30:28.922Z,1011.4
2017-01-21T01:30:50.329Z,1011.4
2017-01-21T01:31:11.936Z,1011.4
2017-01-21T01:31:33.235Z,1011.4
2017-01-21T01:31:55.313Z,1011.4
2017-01-21T01:32:16.619Z,1011.4
2017-01-21T01:32:38.267Z,1011.4
2017-01-21T01:32:59.641Z,1011.4
2017-01-21T01:33:21.129Z,1011.4
2017-01-21T01:33:42.650Z,1011.4
2017-01-21T01:34:03.936Z,1011.4
2017-01-21T01:34:25.465Z,1011.3
2017-01-21T01:34:47.006Z,1011.3
2017-01-21T01:35:08.420Z,1011.4
2017-01-21T01:35:29.715Z,1011.4
2017-01-21T01:35:51.010Z,1011.3
2017-01-21T01:36:12.332Z,1011.4
2017-01-21T01:36:33.632Z,1011.3
2017-01-21T01:36:54.922Z,1011.3
2017-01-21T01:37:16.215Z,1011.3
2017-01-21T01:37:38.625Z,1011.4
2017-01-21T01:38:00.133Z,1011.3
2017-01-21T01:38:21.458Z,1011.3
2017-01-21T01:38:42.741Z,1011.4
2017-01-21T01:39:04.049Z,1011.3
2017-01-21T01:39:25.381Z,1011.4
2017-01-21T01:39:46.683Z,1011.4
2017-01-21T01:40:07.963Z,1011.4
2017-01-21T01:40:29.240Z,1011.4
2017-01-21T01:40:50.567Z,1011.4
2017-01-21T01:41:11.933Z,1011.4
2017-01-21T01:41:33.366Z,1011.4
2017-01-21T01:41:54.660Z,1011.4
2017-01-21T01:42:16.125Z,1011.4
2017-01-21T01:42:37.407Z,1011.4
2017-01-21T01:42:58.922Z,1011.4
2017-01-21T01:43:20.335Z,1011.4
2017-01-21T01:43:41.731Z,1011.4
2017-01-21T01:44:03.028Z,1011.4
2017-01-21T01:44:24.305Z,1011.4
2017-01-21T01:44:46.481Z,1011.4
2017-01-21T01:45:07.775Z,1011.5
2017-01-21T01:45:29.062Z,1011.4
2017-01-21T01:45:50.354Z,1011.4
2017-01-21T01:46:11.636Z,1011.4
2017-01-21T01:46:32.927Z,1011.4
2017-01-21T01:46:54.438Z,1011.4
2017-01-21T01:47:15.854Z,1011.4
2017-01-21T01:47:37.145Z,1011.4
2017-01-21T01:47:58.432Z,1011.4
2017-01-21T01:48:19.737Z,1011.4
2017-01-21T01:48:41.034Z,1011.4
2017-01-21T01:49:02.346Z,1011.4
2017-01-21T01:49:23.622Z,1011.4
2017-01-21T01:49:44.998Z,1011.4
2017-01-21T01:50:06.512Z,1011.4
2017-01-21T01:50:27.803Z,1011.4
2017-01-21T01:50:50.386Z,1011.4
2017-01-21T01:51:11.674Z,1011.4
2017-01-21T01:51:33.389Z,1011.5
2017-01-21T01:51:54.882Z,1011.4
2017-01-21T01:52:16.306Z,1011.4
2017-01-21T01:52:37.632Z,1011.4
2017-01-21T01:52:58.927Z,1011.4
2017-01-21T01:53:20.230Z,1011.4
2017-01-21T01:53:41.564Z,1011.4
2017-01-21T01:54:03.037Z,1011.4
2017-01-21T01:54:24.447Z,1011.4
2017-01-21T01:54:45.763Z,1011.4
2017-01-21T01:55:07.239Z,1011.4
2017-01-21T01:55:28.529Z,1011.4
2017-01-21T01:55:49.822Z,1011.4
2017-01-21T01:56:11.151Z,1011.4
2017-01-21T01:56:32.425Z,1011.4
2017-01-21T01:56:53.727Z,1011.4
2017-01-21T01:57:15.017Z,1011.4
2017-01-21T01:57:36.321Z,1011.4
2017-01-21T01:57:57.696Z,1011.4
2017-01-21T01:58:19.015Z,1011.5
2017-01-21T01:58:40.326Z,1011.4
2017-01-21T01:59:02.370Z,1011.5
2017-01-21T01:59:24.504Z,1011.5
2017-01-21T01:59:45.803Z,1011.5
2017-01-21T02:00:07.144Z,1011.4
2017-01-21T02:00:28.433Z,1011.5
2017-01-21T02:00:50.570Z,1011.4
2017-01-21T02:01:11.881Z,1011.4
2017-01-21T02:01:33.173Z,1011.5
2017-01-21T02:01:54.465Z,1011.5
2017-01-21T02:02:15.874Z,1011.5
2017-01-21T02:02:37.180Z,1011.5
2017-01-21T02:02:58.498Z,1011.5
2017-01-21T02:03:19.809Z,1011.5
2017-01-21T02:03:41.209Z,1011.5
2017-01-21T02:04:02.624Z,1011.5
2017-01-21T02:04:24.181Z,1011.5
2017-01-21T02:04:45.484Z,1011.5
2017-01-21T02:05:06.845Z,1011.5
2017-01-21T02:05:28.151Z,1011.5
2017-01-21T02:05:49.482Z,1011.5
2017-01-21T02:06:11.323Z,1011.5
2017-01-21T02:06:32.783Z,1011.5
2017-01-21T02:06:54.393Z,1011.5
2017-01-21T02:07:16.591Z,1011.5
2017-01-21T02:07:39.017Z,1011.5
2017-01-21T02:08:00.311Z,1011.5
2017-01-21T02:08:21.630Z,1011.5
2017-01-21T02:08:42.966Z,1011.5
2017-01-21T02:09:04.275Z,1011.5
2017-01-21T02:09:25.642Z,1011.5
2017-01-21T02:09:47.010Z,1011.5
2017-01-21T02:10:08.316Z,1011.5
2017-01-21T02:10:29.623Z,1011.5
2017-01-21T02:10:50.914Z,1011.5
2017-01-21T02:11:12.211Z,1011.5
2017-01-21T02:11:33.504Z,1011.5
2017-01-21T02:11:54.789Z,1011.5
2017-01-21T02:12:16.145Z,1011.5
2017-01-21T02:12:37.441Z,1011.5
2017-01-21T02:12:58.782Z,1011.4
2017-01-21T02:13:20.071Z,1011.4
2017-01-21T02:13:41.405Z,1011.5
2017-01-21T02:14:02.700Z,1011.4
2017-01-21T02:14:23.988Z,1011.5
2017-01-21T02:14:45.299Z,1011.5
2017-01-21T02:15:06.590Z,1011.4
2017-01-21T02:15:27.980Z,1011.5
2017-01-21T02:15:49.435Z,1011.5
2017-01-21T02:16:10.870Z,1011.5
2017-01-21T02:16:32.171Z,1011.5
2017-01-21T02:16:53.456Z,1011.5
2017-01-21T02:17:14.772Z,1011.5
2017-01-21T02:17:36.086Z,1011.5
2017-01-21T02:17:57.425Z,1011.5
2017-01-21T02:18:18.723Z,1011.5
2017-01-21T02:18:40.018Z,1011.5
2017-01-21T02:19:01.322Z,1011.5
2017-01-21T02:19:22.717Z,1011.5
2017-01-21T02:19:44.178Z,1011.5
2017-01-21T02:20:05.476Z,1011.5
2017-01-21T02:20:27.253Z,1011.5
2017-01-21T02:20:48.734Z,1011.5
2017-01-21T02:21:10.025Z,1011.5
2017-01-21T02:21:31.574Z,1011.5
2017-01-21T02:21:53.428Z,1011.5
2017-01-21T02:22:14.858Z,1011.5
2017-01-21T02:22:36.158Z,1011.5
2017-01-21T02:22:57.481Z,1011.5
2017-01-21T02:23:18.777Z,1011.5
2017-01-21T02:23:40.068Z,1011.5
2017-01-21T02:24:01.356Z,1011.5
2017-01-21T02:24:22.652Z,1011.5
2017-01-21T02:24:44.154Z,1011.5
2017-01-21T02:25:06.445Z,1011.5
2017-01-21T02:25:27.744Z,1011.5
2017-01-21T02:25:49.035Z,1011.6
2017-01-21T02:26:10.507Z,1011.6
2017-01-21T02:26:31.879Z,1011.6
2017-01-21T02:26:53.445Z,1011.5
2017-01-21T02:27:14.748Z,1011.6
2017-01-21T02:27:36.059Z,1011.6
2017-01-21T02:27:57.483Z,1011.5
2017-01-21T02:28:18.866Z,1011.5
2017-01-21T02:28:40.405Z,1011.5
2017-01-21T02:29:01.952Z,1011.5
2017-01-21T02:29:23.245Z,1011.5
2017-01-21T02:29:44.590Z,1011.5
2017-01-21T02:30:05.883Z,1011.5
2017-01-21T02:30:27.176Z,1011.5
2017-01-21T02:30:48.623Z,1011.5
2017-01-21T02:31:10.105Z,1011.5
2017-01-21T02:31:31.405Z,1011.4
2017-01-21T02:31:52.698Z,1011.4
2017-01-21T02:32:14.003Z,1011.4
2017-01-21T02:32:35.348Z,1011.4
2017-01-21T02:32:56.682Z,1011.5
2017-01-21T02:33:17.989Z,1011.4
2017-01-21T02:33:39.291Z,1011.5
2017-01-21T02:34:00.718Z,1011.4
2017-01-21T02:34:22.038Z,1011.4
2017-01-21T02:34:43.358Z,1011.5
2017-01-21T02:35:04.634Z,1011.4
2017-01-21T02:35:25.950Z,1011.4
2017-01-21T02:35:47.234Z,1011.5
2017-01-21T02:36:08.553Z,1011.4
2017-01-21T02:36:29.964Z,1011.5
2017-01-21T02:36:51.505Z,1011.4
2017-01-21T02:37:13.034Z,1011.4
2017-01-21T02:37:34.869Z,1011.4
2017-01-21T02:37:56.277Z,1011.4
2017-01-21T02:38:17.599Z,1011.4
2017-01-21T02:38:38.886Z,1011.4
2017-01-21T02:39:00.183Z,1011.4
2017-01-21T02:39:21.466Z,1011.4
2017-01-21T02:39:42.827Z,1011.4
2017-01-21T02:40:04.135Z,1011.4
2017-01-21T02:40:25.451Z,1011.4
2017-01-21T02:40:46.746Z,1011.4
2017-01-21T02:41:08.025Z,1011.4
2017-01-21T02:41:29.318Z,1011.4
2017-01-21T02:41:50.744Z,1011.4
2017-01-21T02:42:12.032Z,1011.3
2017-01-21T02:42:33.324Z,1011.4
2017-01-21T02:42:55.226Z,1011.4
2017-01-21T02:43:16.534Z,1011.4
2017-01-21T02:43:37.815Z,1011.4
2017-01-21T02:43:59.360Z,1011.3
2017-01-21T02:44:20.896Z,1011.3
2017-01-21T02:44:42.183Z,1011.4
2017-01-21T02:45:03.695Z,1011.3
2017-01-21T02:45:25.146Z,1011.3
2017-01-21T02:45:46.477Z,1011.3
2017-01-21T02:46:07.985Z,1011.3
2017-01-21T02:46:29.294Z,1011.3
2017-01-21T02:46:50.638Z,1011.3
2017-01-21T02:47:11.959Z,1011.3
2017-01-21T02:47:33.258Z,1011.3
2017-01-21T02:47:54.600Z,1011.3
2017-01-21T02:48:15.890Z,1011.3
2017-01-21T02:48:37.175Z,1011.3
2017-01-21T02:48:58.466Z,1011.3
2017-01-21T02:49:19.767Z,1011.3
2017-01-21T02:49:41.037Z,1011.3
2017-01-21T02:50:02.608Z,1011.3
2017-01-21T02:50:24.005Z,1011.3
2017-01-21T02:50:45.299Z,1011.3
2017-01-21T02:51:06.587Z,1011.3
2017-01-21T02:51:27.870Z,1011.3
2017-01-21T02:51:49.492Z,1011.3
2017-01-21T02:52:11.209Z,1011.3
2017-01-21T02:52:35.358Z,1011.3
2017-01-21T02:52:56.870Z,1011.2
2017-01-21T02:53:18.362Z,1011.3
2017-01-21T02:53:39.753Z,1011.2
2017-01-21T02:54:01.134Z,1011.3
2017-01-21T02:54:22.854Z,1011.3
2017-01-21T02:54:44.486Z,1011.3
2017-01-21T02:55:05.798Z,1011.3
2017-01-21T02:55:27.085Z,1011.3
2017-01-21T02:55:48.365Z,1011.3
2017-01-21T02:56:09.643Z,1011.3
2017-01-21T02:56:31.023Z,1011.3
2017-01-21T02:56:52.363Z,1011.3
2017-01-21T02:57:13.667Z,1011.3
2017-01-21T02:57:34.973Z,1011.2
2017-01-21T02:57:56.277Z,1011.3
2017-01-21T02:58:17.565Z,1011.2
2017-01-21T02:58:38.866Z,1011.3
2017-01-21T02:59:00.481Z,1011.3
2017-01-21T02:59:21.839Z,1011.2
2017-01-21T02:59:43.158Z,1011.3
2017-01-21T03:00:04.895Z,1011.3
2017-01-21T03:00:27.030Z,1011.3
2017-01-21T03:00:48.454Z,1011.3
2017-01-21T03:01:10.148Z,1011.3
2017-01-21T03:01:31.711Z,1011.3
2017-01-21T03:01:53.119Z,1011.3
2017-01-21T03:02:14.830Z,1011.3
2017-01-21T03:02:36.143Z,1011.3
2017-01-21T03:02:57.439Z,1011.3
2017-01-21T03:03:18.732Z,1011.3
2017-01-21T03:03:40.024Z,1011.3
2017-01-21T03:04:01.371Z,1011.3
2017-01-21T03:04:22.830Z,1011.3
2017-01-21T03:04:44.308Z,1011.3
2017-01-21T03:05:05.599Z,1011.3
2017-01-21T03:05:26.897Z,1011.3
2017-01-21T03:05:48.180Z,1011.3
2017-01-21T03:06:09.685Z,1011.3
2017-01-21T03:06:30.974Z,1011.3
2017-01-21T03:06:52.274Z,1011.3
2017-01-21T03:07:13.571Z,1011.3
2017-01-21T03:07:34.859Z,1011.3
2017-01-21T03:07:56.214Z,1011.3
2017-01-21T03:08:17.711Z,1011.3
2017-01-21T03:08:39.049Z,1011.3
2017-01-21T03:09:00.329Z,1011.3
2017-01-21T03:09:21.630Z,1011.3
2017-01-21T03:09:43.171Z,1011.3
2017-01-21T03:10:04.451Z,1011.4
2017-01-21T03:10:25.737Z,1011.3
2017-01-21T03:10:47.027Z,1011.3
2017-01-21T03:11:08.340Z,1011.3
2017-01-21T03:11:29.620Z,1011.3
2017-01-21T03:11:50.915Z,1011.3
2017-01-21T03:12:12.215Z,1011.2
2017-01-21T03:12:33.504Z,1011.3
2017-01-21T03:12:54.817Z,1011.2
2017-01-21T03:13:16.132Z,1011.2
2017-01-21T03:13:37.807Z,1011.2
2017-01-21T03:13:59.213Z,1011.2
2017-01-21T03:14:20.501Z,1011.2
2017-01-21T03:14:41.960Z,1011.2
2017-01-21T03:15:03.603Z,1011.2
2017-01-21T03:15:25.154Z,1011.1
2017-01-21T03:15:46.554Z,1011.2
2017-01-21T03:16:07.957Z,1011.2
2017-01-21T03:16:29.244Z,1011.1
2017-01-21T03:16:50.545Z,1011.2
2017-01-21T03:17:11.841Z,1011.2
2017-01-21T03:17:33.137Z,1011.2
2017-01-21T03:17:54.426Z,1011.2
2017-01-21T03:18:15.782Z,1011.2
2017-01-21T03:18:37.383Z,1011.2
2017-01-21T03:18:58.700Z,1011.2
2017-01-21T03:19:20.012Z,1011.2
2017-01-21T03:19:41.342Z,1011.2
2017-01-21T03:20:02.652Z,1011.2
2017-01-21T03:20:23.942Z,1011.2
2017-01-21T03:20:45.408Z,1011.2
2017-01-21T03:21:07.520Z,1011.2
2017-01-21T03:21:30.217Z,1011.2
2017-01-21T03:21:51.673Z,1011.2
2017-01-21T03:22:13.084Z,1011.2
2017-01-21T03:22:34.398Z,1011.3
2017-01-21T03:22:55.696Z,1011.2
2017-01-21T03:23:16.986Z,1011.3
2017-01-21T03:23:38.304Z,1011.2
2017-01-21T03:23:59.600Z,1011.3
2017-01-21T03:24:20.875Z,1011.2
2017-01-21T03:24:42.231Z,1011.2
2017-01-21T03:25:03.543Z,1011.2
2017-01-21T03:25:24.887Z,1011.2
2017-01-21T03:25:46.219Z,1011.3
2017-01-21T03:26:07.554Z,1011.3
2017-01-21T03:26:28.825Z,1011.3
2017-01-21T03:26:50.135Z,1011.3
2017-01-21T03:27:11.427Z,1011.3
2017-01-21T03:27:32.720Z,1011.3
2017-01-21T03:27:54.037Z,1011.3
2017-01-21T03:28:15.322Z,1011.3
2017-01-21T03:28:36.621Z,1011.3
2017-01-21T03:28:57.939Z,1011.3
2017-01-21T03:29:19.241Z,1011.2
2017-01-21T03:29:40.543Z,1011.2
2017-01-21T03:30:01.823Z,1011.2
2017-01-21T03:30:23.107Z,1011.2
2017-01-21T03:30:44.406Z,1011.2
2017-01-21T03:31:05.713Z,1011.2
2017-01-21T03:31:27.081Z,1011.2
2017-01-21T03:31:48.431Z,1011.2
2017-01-21T03:32:09.717Z,1011.2
2017-01-21T03:32:31.022Z,1011.2
2017-01-21T03:32:52.349Z,1011.2
2017-01-21T03:33:13.638Z,1011.2
2017-01-21T03:33:34.944Z,1011.2
2017-01-21T03:33:56.229Z,1011.2
2017-01-21T03:34:17.511Z,1011.2
2017-01-21T03:34:38.806Z,1011.2
2017-01-21T03:35:00.088Z,1011.2
2017-01-21T03:35:21.705Z,1011.1
2017-01-21T03:35:43.004Z,1011.2
2017-01-21T03:36:04.353Z,1011.2
2017-01-21T03:36:25.893Z,1011.2
2017-01-21T03:36:47.534Z,1011.1
2017-01-21T03:37:09.008Z,1011.1
2017-01-21T03:37:30.309Z,1011.2
2017-01-21T03:37:51.655Z,1011.2
2017-01-21T03:38:12.998Z,1011.2
2017-01-21T03:38:34.312Z,1011.1
2017-01-21T03:38:55.602Z,1011.2
2017-01-21T03:39:16.887Z,1011.2
2017-01-21T03:39:38.336Z,1011.2
2017-01-21T03:39:59.633Z,1011.2
2017-01-21T03:40:21.111Z,1011.2
2017-01-21T03:40:42.435Z,1011.2
2017-01-21T03:41:03.727Z,1011.1
2017-01-21T03:41:25.017Z,1011.2
2017-01-21T03:41:46.485Z,1011.1
2017-01-21T03:42:07.787Z,1011.1
2017-01-21T03:42:29.099Z,1011.1
2017-01-21T03:42:50.495Z,1011.1
2017-01-21T03:43:11.798Z,1011.1
2017-01-21T03:43:33.407Z,1011.1
2017-01-21T03:43:54.857Z,1011.1
2017-01-21T03:44:16.244Z,1011.1
2017-01-21T03:44:37.541Z,1011.1
2017-01-21T03:44:58.916Z,1011.1
2017-01-21T03:45:20.323Z,1011.2
2017-01-21T03:45:42.309Z,1011.2
2017-01-21T03:46:03.786Z,1011.1
2017-01-21T03:46:25.230Z,1011.2
2017-01-21T03:46:46.694Z,1011.2
2017-01-21T03:47:08.172Z,1011.1
2017-01-21T03:47:29.547Z,1011.1
2017-01-21T03:47:50.885Z,1011.2
2017-01-21T03:48:12.189Z,1011.2
2017-01-21T03:48:33.491Z,1011.2
2017-01-21T03:48:54.948Z,1011.1
2017-01-21T03:49:16.239Z,1011.1
2017-01-21T03:49:37.603Z,1011.2
2017-01-21T03:49:59.137Z,1011.2
2017-01-21T03:50:20.616Z,1011.1
2017-01-21T03:50:41.932Z,1011.1
2017-01-21T03:51:03.247Z,1011.1
2017-01-21T03:51:24.556Z,1011.1
2017-01-21T03:51:45.837Z,1011.1
2017-01-21T03:52:07.191Z,1011.1
2017-01-21T03:52:28.513Z,1011.1
2017-01-21T03:52:50.125Z,1011.1
2017-01-21T03:53:11.526Z,1011.1
2017-01-21T03:53:32.906Z,1011.1
2017-01-21T03:53:54.202Z,1011.1
2017-01-21T03:54:15.487Z,1011.1
2017-01-21T03:54:36.855Z,1011.1
2017-01-21T03:54:58.175Z,1011.1
2017-01-21T03:55:19.468Z,1011.1
2017-01-21T03:55:40.829Z,1011.1
2017-01-21T03:56:02.190Z,1011.1
2017-01-21T03:56:23.488Z,1011.1
2017-01-21T03:56:44.807Z,1011.1
2017-01-21T03:57:06.117Z,1011.1
2017-01-21T03:57:27.443Z,1011.1
2017-01-21T03:57:48.751Z,1011
2017-01-21T03:58:10.034Z,1011.1
2017-01-21T03:58:31.331Z,1011
2017-01-21T03:58:52.615Z,1011.1
2017-01-21T03:59:13.926Z,1011.1
2017-01-21T03:59:35.233Z,1011.1
2017-01-21T03:59:56.513Z,1011
2017-01-21T04:00:17.996Z,1011.1
2017-01-21T04:00:39.279Z,1011
2017-01-21T04:01:00.580Z,1011
2017-01-21T04:01:21.862Z,1011.1
2017-01-21T04:01:43.146Z,1011.1
2017-01-21T04:02:04.437Z,1011
2017-01-21T04:02:25.855Z,1011
2017-01-21T04:02:47.215Z,1011
2017-01-21T04:03:08.525Z,1011
2017-01-21T04:03:29.897Z,1011
2017-01-21T04:03:51.287Z,1011
2017-01-21T04:04:12.711Z,1011
2017-01-21T04:04:33.993Z,1011
2017-01-21T04:04:55.272Z,1010.9
2017-01-21T04:05:16.632Z,1011
2017-01-21T04:05:37.941Z,1011
2017-01-21T04:05:59.380Z,1011
2017-01-21T04:06:20.686Z,1011
2017-01-21T04:06:42.027Z,1011
2017-01-21T04:07:03.386Z,1011
2017-01-21T04:07:24.705Z,1011
2017-01-21T04:07:46.002Z,1011
2017-01-21T04:08:07.367Z,1011
2017-01-21T04:08:28.769Z,1011
2017-01-21T04:08:50.069Z,1011
2017-01-21T04:09:11.394Z,1011
2017-01-21T04:09:32.771Z,1011
2017-01-21T04:09:54.120Z,1011
2017-01-21T04:10:16.034Z,1011
2017-01-21T04:10:37.315Z,1011
2017-01-21T04:10:58.596Z,1011
2017-01-21T04:11:19.961Z,1011
2017-01-21T04:11:41.310Z,1010.9
2017-01-21T04:12:02.619Z,1011
2017-01-21T04:12:23.918Z,1011
2017-01-21T04:12:45.268Z,1011
2017-01-21T04:13:06.562Z,1011
2017-01-21T04:13:27.861Z,1010.9
2017-01-21T04:13:49.178Z,1010.9
2017-01-21T04:14:10.612Z,1010.9
2017-01-21T04:14:32.106Z,1010.9
2017-01-21T04:14:53.558Z,1010.9
2017-01-21T04:15:14.855Z,1010.9
2017-01-21T04:15:36.167Z,1010.9
2017-01-21T04:15:57.451Z,1010.9
2017-01-21T04:16:18.754Z,1010.9
2017-01-21T04:16:40.259Z,1010.9
2017-01-21T04:17:01.582Z,1010.9
2017-01-21T04:17:22.877Z,1010.9
2017-01-21T04:17:44.165Z,1010.9
2017-01-21T04:18:05.547Z,1010.9
2017-01-21T04:18:26.859Z,1010.9
2017-01-21T04:18:48.174Z,1010.9
2017-01-21T04:19:09.460Z,1011
2017-01-21T04:19:30.752Z,1010.9
2017-01-21T04:19:52.162Z,1010.9
2017-01-21T04:20:13.459Z,1010.9
2017-01-21T04:20:34.744Z,1010.9
2017-01-21T04:20:56.026Z,1010.9
2017-01-21T04:21:18.002Z,1010.8
2017-01-21T04:21:39.402Z,1010.8
2017-01-21T04:22:00.687Z,1010.8
2017-01-21T04:22:21.988Z,1010.8
2017-01-21T04:22:43.278Z,1010.8
2017-01-21T04:23:04.585Z,1010.8
2017-01-21T04:23:25.873Z,1010.8
2017-01-21T04:23:47.171Z,1010.8
2017-01-21T04:24:08.478Z,1010.8
2017-01-21T04:24:29.793Z,1010.8
2017-01-21T04:24:51.098Z,1010.8
2017-01-21T04:25:12.395Z,1010.8
2017-01-21T04:25:33.686Z,1010.8
2017-01-21T04:25:55.002Z,1010.7
2017-01-21T04:26:16.556Z,1010.8
2017-01-21T04:26:38.048Z,1010.7
2017-01-21T04:26:59.386Z,1010.7
2017-01-21T04:27:20.672Z,1010.7
2017-01-21T04:27:42.151Z,1010.7
2017-01-21T04:28:03.443Z,1010.7